sensor_id;sensor_type;location;lat;lon;timestamp;temperature;humidity
16666;DHT22;8446;50.998;6.250;2023-04-06T00:00:02;3.00;99.90
16666;DHT22;8446;50.998;6.250;2023-04-06T00:02:30;2.90;99.90
16666;DHT22;8446;50.998;6.250;2023-04-06T00:04:57;2.90;99.90
16666;DHT22;8446;50.998;6.250;2023-04-06T00:07:23;3.00;99.90
16666;DHT22;8446;50.998;6.250;2023-04-06T00:09:50;3.10;99.90
16666;DHT22;8446;50.998;6.250;2023-04-06T00:12:18;3.10;99.90
16666;DHT22;8446;50.998;6.250;2023-04-06T00:14:45;3.00;99.90
16666;DHT22;8446;50.998;6.250;2023-04-06T00:17:12;3.00;99.90
16666;DHT22;8446;50.998;6.250;2023-04-06T00:19:39;2.80;99.90
16666;DHT22;8446;50.998;6.250;2023-04-06T00:22:05;2.70;99.90
16666;DHT22;8446;50.998;6.250;2023-04-06T00:24:32;2.70;99.90
16666;DHT22;8446;50.998;6.250;2023-04-06T00:26:59;2.60;99.90
16666;DHT22;8446;50.998;6.250;2023-04-06T00:29:28;2.50;99.90
16666;DHT22;8446;50.998;6.250;2023-04-06T00:31:54;2.50;99.90
16666;DHT22;8446;50.998;6.250;2023-04-06T00:34:21;2.50;99.90
16666;DHT22;8446;50.998;6.250;2023-04-06T00:36:48;2.60;99.90
16666;DHT22;8446;50.998;6.250;2023-04-06T00:39:15;2.50;99.90
16666;DHT22;8446;50.998;6.250;2023-04-06T00:41:46;2.50;99.90
16666;DHT22;8446;50.998;6.250;2023-04-06T00:44:13;2.60;99.90
16666;DHT22;8446;50.998;6.250;2023-04-06T00:46:42;2.60;99.90
16666;DHT22;8446;50.998;6.250;2023-04-06T00:49:09;2.50;99.90
16666;DHT22;8446;50.998;6.250;2023-04-06T00:51:35;2.60;99.90
16666;DHT22;8446;50.998;6.250;2023-04-06T00:54:02;2.50;99.90
16666;DHT22;8446;50.998;6.250;2023-04-06T00:56:29;2.50;99.90
16666;DHT22;8446;50.998;6.250;2023-04-06T00:58:56;2.50;99.90
16666;DHT22;8446;50.998;6.250;2023-04-06T01:01:23;2.50;99.90
16666;DHT22;8446;50.998;6.250;2023-04-06T01:03:52;2.50;99.90
16666;DHT22;8446;50.998;6.250;2023-04-06T01:06:19;2.40;99.90
16666;DHT22;8446;50.998;6.250;2023-04-06T01:08:47;2.40;99.90
16666;DHT22;8446;50.998;6.250;2023-04-06T01:11:13;2.30;99.90
16666;DHT22;8446;50.998;6.250;2023-04-06T01:13:40;2.20;99.90
16666;DHT22;8446;50.998;6.250;2023-04-06T01:16:07;2.10;99.90
16666;DHT22;8446;50.998;6.250;2023-04-06T01:18:35;1.90;99.90
16666;DHT22;8446;50.998;6.250;2023-04-06T01:21:03;1.80;99.90
16666;DHT22;8446;50.998;6.250;2023-04-06T01:23:31;1.80;99.90
16666;DHT22;8446;50.998;6.250;2023-04-06T01:25:58;1.80;99.90
16666;DHT22;8446;50.998;6.250;2023-04-06T01:28:25;1.70;99.90
16666;DHT22;8446;50.998;6.250;2023-04-06T01:30:52;1.60;99.90
16666;DHT22;8446;50.998;6.250;2023-04-06T01:33:18;1.60;99.90
16666;DHT22;8446;50.998;6.250;2023-04-06T01:35:45;1.70;99.90
16666;DHT22;8446;50.998;6.250;2023-04-06T01:38:12;1.70;99.90
16666;DHT22;8446;50.998;6.250;2023-04-06T01:40:40;1.60;99.90
16666;DHT22;8446;50.998;6.250;2023-04-06T01:43:07;1.60;99.90
16666;DHT22;8446;50.998;6.250;2023-04-06T01:45:34;1.60;99.90
16666;DHT22;8446;50.998;6.250;2023-04-06T01:48:01;1.60;99.90
16666;DHT22;8446;50.998;6.250;2023-04-06T01:50:27;1.60;99.90
16666;DHT22;8446;50.998;6.250;2023-04-06T01:52:54;1.50;99.90
16666;DHT22;8446;50.998;6.250;2023-04-06T01:55:21;1.50;99.90
16666;DHT22;8446;50.998;6.250;2023-04-06T01:57:49;1.60;99.90
16666;DHT22;8446;50.998;6.250;2023-04-06T02:00:16;1.50;99.90
16666;DHT22;8446;50.998;6.250;2023-04-06T02:02:44;1.50;99.90
16666;DHT22;8446;50.998;6.250;2023-04-06T02:05:11;1.50;99.90
16666;DHT22;8446;50.998;6.250;2023-04-06T02:07:37;1.50;99.90
16666;DHT22;8446;50.998;6.250;2023-04-06T02:10:11;1.50;99.90
16666;DHT22;8446;50.998;6.250;2023-04-06T02:12:38;1.40;99.90
16666;DHT22;8446;50.998;6.250;2023-04-06T02:15:07;1.40;99.90
16666;DHT22;8446;50.998;6.250;2023-04-06T02:17:34;1.30;99.90
16666;DHT22;8446;50.998;6.250;2023-04-06T02:20:01;1.30;99.90
16666;DHT22;8446;50.998;6.250;2023-04-06T02:22:28;1.30;99.90
16666;DHT22;8446;50.998;6.250;2023-04-06T02:24:55;1.30;99.90
16666;DHT22;8446;50.998;6.250;2023-04-06T02:27:22;1.20;99.90
16666;DHT22;8446;50.998;6.250;2023-04-06T02:29:49;1.10;99.90
16666;DHT22;8446;50.998;6.250;2023-04-06T02:32:17;1.10;99.90
16666;DHT22;8446;50.998;6.250;2023-04-06T02:34:44;1.20;99.90
16666;DHT22;8446;50.998;6.250;2023-04-06T02:37:11;1.20;99.90
16666;DHT22;8446;50.998;6.250;2023-04-06T02:39:37;1.20;99.90
16666;DHT22;8446;50.998;6.250;2023-04-06T02:42:04;1.20;99.90
16666;DHT22;8446;50.998;6.250;2023-04-06T02:44:31;1.20;99.90
16666;DHT22;8446;50.998;6.250;2023-04-06T02:46:58;1.20;99.90
16666;DHT22;8446;50.998;6.250;2023-04-06T02:49:26;1.20;99.90
16666;DHT22;8446;50.998;6.250;2023-04-06T02:51:52;1.20;99.90
16666;DHT22;8446;50.998;6.250;2023-04-06T02:54:19;1.20;99.90
16666;DHT22;8446;50.998;6.250;2023-04-06T02:56:46;1.20;99.90
16666;DHT22;8446;50.998;6.250;2023-04-06T02:59:13;1.30;99.90
16666;DHT22;8446;50.998;6.250;2023-04-06T03:01:40;1.30;99.90
16666;DHT22;8446;50.998;6.250;2023-04-06T03:04:07;1.20;99.90
16666;DHT22;8446;50.998;6.250;2023-04-06T03:06:35;1.30;99.90
16666;DHT22;8446;50.998;6.250;2023-04-06T03:09:02;1.30;99.90
16666;DHT22;8446;50.998;6.250;2023-04-06T03:11:29;1.30;99.90
16666;DHT22;8446;50.998;6.250;2023-04-06T03:13:55;1.20;99.90
16666;DHT22;8446;50.998;6.250;2023-04-06T03:16:22;1.20;99.90
16666;DHT22;8446;50.998;6.250;2023-04-06T03:18:49;1.20;99.90
16666;DHT22;8446;50.998;6.250;2023-04-06T03:21:16;1.20;99.90
16666;DHT22;8446;50.998;6.250;2023-04-06T03:23:46;1.20;99.90
16666;DHT22;8446;50.998;6.250;2023-04-06T03:26:15;1.10;99.90
16666;DHT22;8446;50.998;6.250;2023-04-06T03:28:41;1.10;99.90
16666;DHT22;8446;50.998;6.250;2023-04-06T03:31:08;1.00;99.90
16666;DHT22;8446;50.998;6.250;2023-04-06T03:33:35;1.00;99.90
16666;DHT22;8446;50.998;6.250;2023-04-06T03:36:02;1.00;99.90
16666;DHT22;8446;50.998;6.250;2023-04-06T03:38:29;1.00;99.90
16666;DHT22;8446;50.998;6.250;2023-04-06T03:40:57;1.00;99.90
16666;DHT22;8446;50.998;6.250;2023-04-06T03:43:24;1.00;99.90
16666;DHT22;8446;50.998;6.250;2023-04-06T03:45:51;1.00;99.90
16666;DHT22;8446;50.998;6.250;2023-04-06T03:48:18;1.00;99.90
16666;DHT22;8446;50.998;6.250;2023-04-06T03:50:44;1.00;99.90
16666;DHT22;8446;50.998;6.250;2023-04-06T03:53:11;0.90;99.90
16666;DHT22;8446;50.998;6.250;2023-04-06T03:55:38;1.00;99.90
16666;DHT22;8446;50.998;6.250;2023-04-06T03:58:06;1.00;99.90
16666;DHT22;8446;50.998;6.250;2023-04-06T04:00:33;1.00;99.90
16666;DHT22;8446;50.998;6.250;2023-04-06T04:02:59;1.00;99.90
16666;DHT22;8446;50.998;6.250;2023-04-06T04:05:27;1.00;99.90
16666;DHT22;8446;50.998;6.250;2023-04-06T04:07:54;1.10;99.90
16666;DHT22;8446;50.998;6.250;2023-04-06T04:10:21;1.10;99.90
16666;DHT22;8446;50.998;6.250;2023-04-06T04:12:48;1.10;99.90
16666;DHT22;8446;50.998;6.250;2023-04-06T04:15:16;1.10;99.90
16666;DHT22;8446;50.998;6.250;2023-04-06T04:17:42;1.10;99.90
16666;DHT22;8446;50.998;6.250;2023-04-06T04:20:12;1.00;99.90
16666;DHT22;8446;50.998;6.250;2023-04-06T04:22:39;1.10;99.90
16666;DHT22;8446;50.998;6.250;2023-04-06T04:25:06;1.10;99.90
16666;DHT22;8446;50.998;6.250;2023-04-06T04:27:33;1.20;99.90
16666;DHT22;8446;50.998;6.250;2023-04-06T04:29:59;1.20;99.90
16666;DHT22;8446;50.998;6.250;2023-04-06T04:32:28;1.20;99.90
16666;DHT22;8446;50.998;6.250;2023-04-06T04:34:54;1.30;99.90
16666;DHT22;8446;50.998;6.250;2023-04-06T04:37:21;1.30;99.90
16666;DHT22;8446;50.998;6.250;2023-04-06T04:39:48;1.30;99.90
16666;DHT22;8446;50.998;6.250;2023-04-06T04:42:15;1.40;99.90
16666;DHT22;8446;50.998;6.250;2023-04-06T04:44:42;1.40;99.90
16666;DHT22;8446;50.998;6.250;2023-04-06T04:47:09;1.40;99.90
16666;DHT22;8446;50.998;6.250;2023-04-06T04:49:37;1.40;99.90
16666;DHT22;8446;50.998;6.250;2023-04-06T04:52:04;1.50;99.90
16666;DHT22;8446;50.998;6.250;2023-04-06T04:54:30;1.50;99.90
16666;DHT22;8446;50.998;6.250;2023-04-06T04:56:57;1.50;99.90
16666;DHT22;8446;50.998;6.250;2023-04-06T04:59:24;1.60;99.90
16666;DHT22;8446;50.998;6.250;2023-04-06T05:01:51;1.60;99.90
16666;DHT22;8446;50.998;6.250;2023-04-06T05:04:18;1.70;99.90
16666;DHT22;8446;50.998;6.250;2023-04-06T05:06:46;1.70;99.90
16666;DHT22;8446;50.998;6.250;2023-04-06T05:09:13;1.80;99.90
16666;DHT22;8446;50.998;6.250;2023-04-06T05:11:39;1.80;99.90
16666;DHT22;8446;50.998;6.250;2023-04-06T05:14:06;1.80;99.90
16666;DHT22;8446;50.998;6.250;2023-04-06T05:16:34;1.80;99.90
16666;DHT22;8446;50.998;6.250;2023-04-06T05:19:01;1.80;99.90
16666;DHT22;8446;50.998;6.250;2023-04-06T05:21:27;1.90;99.90
16666;DHT22;8446;50.998;6.250;2023-04-06T05:23:56;1.90;99.90
16666;DHT22;8446;50.998;6.250;2023-04-06T05:26:24;1.80;99.90
16666;DHT22;8446;50.998;6.250;2023-04-06T05:28:51;1.80;99.90
16666;DHT22;8446;50.998;6.250;2023-04-06T05:31:18;1.90;99.90
16666;DHT22;8446;50.998;6.250;2023-04-06T05:33:44;1.90;99.90
16666;DHT22;8446;50.998;6.250;2023-04-06T05:36:11;1.90;99.90
16666;DHT22;8446;50.998;6.250;2023-04-06T05:38:38;2.00;99.90
16666;DHT22;8446;50.998;6.250;2023-04-06T05:41:06;2.10;99.90
16666;DHT22;8446;50.998;6.250;2023-04-06T05:43:33;2.10;99.90
16666;DHT22;8446;50.998;6.250;2023-04-06T05:46:00;2.20;99.90
16666;DHT22;8446;50.998;6.250;2023-04-06T05:48:27;2.20;99.90
16666;DHT22;8446;50.998;6.250;2023-04-06T05:50:54;2.30;99.90
16666;DHT22;8446;50.998;6.250;2023-04-06T05:53:21;2.30;99.90
16666;DHT22;8446;50.998;6.250;2023-04-06T05:55:47;2.50;99.90
16666;DHT22;8446;50.998;6.250;2023-04-06T05:58:16;2.50;99.90
16666;DHT22;8446;50.998;6.250;2023-04-06T06:00:43;2.60;99.90
16666;DHT22;8446;50.998;6.250;2023-04-06T06:03:11;2.70;99.90
16666;DHT22;8446;50.998;6.250;2023-04-06T06:05:38;2.80;99.90
16666;DHT22;8446;50.998;6.250;2023-04-06T06:08:05;2.80;99.90
16666;DHT22;8446;50.998;6.250;2023-04-06T06:10:32;2.90;99.90
16666;DHT22;8446;50.998;6.250;2023-04-06T06:12:59;3.00;99.90
16666;DHT22;8446;50.998;6.250;2023-04-06T06:15:27;3.20;99.90
16666;DHT22;8446;50.998;6.250;2023-04-06T06:17:54;3.20;99.90
16666;DHT22;8446;50.998;6.250;2023-04-06T06:20:21;3.30;99.90
16666;DHT22;8446;50.998;6.250;2023-04-06T06:22:48;3.50;99.90
16666;DHT22;8446;50.998;6.250;2023-04-06T06:25:15;3.50;99.90
16666;DHT22;8446;50.998;6.250;2023-04-06T06:27:42;3.60;99.90
16666;DHT22;8446;50.998;6.250;2023-04-06T06:30:09;3.80;99.90
16666;DHT22;8446;50.998;6.250;2023-04-06T06:32:37;3.90;99.90
16666;DHT22;8446;50.998;6.250;2023-04-06T06:35:04;3.90;99.90
16666;DHT22;8446;50.998;6.250;2023-04-06T06:37:31;4.00;99.90
16666;DHT22;8446;50.998;6.250;2023-04-06T06:39:58;4.10;99.90
16666;DHT22;8446;50.998;6.250;2023-04-06T06:42:25;4.10;99.90
16666;DHT22;8446;50.998;6.250;2023-04-06T06:44:52;4.30;99.90
16666;DHT22;8446;50.998;6.250;2023-04-06T06:47:18;4.50;99.90
16666;DHT22;8446;50.998;6.250;2023-04-06T06:49:47;4.60;99.90
16666;DHT22;8446;50.998;6.250;2023-04-06T06:52:13;4.70;99.90
16666;DHT22;8446;50.998;6.250;2023-04-06T06:54:40;4.90;99.90
16666;DHT22;8446;50.998;6.250;2023-04-06T06:57:07;5.00;99.90
16666;DHT22;8446;50.998;6.250;2023-04-06T06:59:34;5.10;99.90
16666;DHT22;8446;50.998;6.250;2023-04-06T07:02:00;5.30;99.90
16666;DHT22;8446;50.998;6.250;2023-04-06T07:04:27;5.40;99.90
16666;DHT22;8446;50.998;6.250;2023-04-06T07:06:55;5.60;99.90
16666;DHT22;8446;50.998;6.250;2023-04-06T07:09:22;5.80;99.90
16666;DHT22;8446;50.998;6.250;2023-04-06T07:11:49;6.00;99.90
16666;DHT22;8446;50.998;6.250;2023-04-06T07:14:16;6.10;99.90
16666;DHT22;8446;50.998;6.250;2023-04-06T07:16:43;6.20;99.90
16666;DHT22;8446;50.998;6.250;2023-04-06T07:19:12;6.30;99.90
16666;DHT22;8446;50.998;6.250;2023-04-06T07:21:38;6.40;99.90
16666;DHT22;8446;50.998;6.250;2023-04-06T07:24:07;6.40;99.90
16666;DHT22;8446;50.998;6.250;2023-04-06T07:26:34;6.50;99.90
16666;DHT22;8446;50.998;6.250;2023-04-06T07:29:00;6.60;99.90
16666;DHT22;8446;50.998;6.250;2023-04-06T07:31:27;6.70;99.90
16666;DHT22;8446;50.998;6.250;2023-04-06T07:33:54;6.80;99.90
16666;DHT22;8446;50.998;6.250;2023-04-06T07:36:21;6.80;99.90
16666;DHT22;8446;50.998;6.250;2023-04-06T07:38:47;6.90;99.90
16666;DHT22;8446;50.998;6.250;2023-04-06T07:41:16;6.90;99.90
16666;DHT22;8446;50.998;6.250;2023-04-06T07:43:43;7.00;99.90
16666;DHT22;8446;50.998;6.250;2023-04-06T07:46:10;7.10;99.90
16666;DHT22;8446;50.998;6.250;2023-04-06T07:48:36;7.10;99.90
16666;DHT22;8446;50.998;6.250;2023-04-06T07:51:04;7.20;99.90
16666;DHT22;8446;50.998;6.250;2023-04-06T07:53:32;7.10;99.90
16666;DHT22;8446;50.998;6.250;2023-04-06T07:55:58;7.30;99.90
16666;DHT22;8446;50.998;6.250;2023-04-06T07:58:26;7.40;99.90
16666;DHT22;8446;50.998;6.250;2023-04-06T08:00:53;7.50;99.90
16666;DHT22;8446;50.998;6.250;2023-04-06T08:03:20;7.70;99.90
16666;DHT22;8446;50.998;6.250;2023-04-06T08:05:51;7.80;99.90
16666;DHT22;8446;50.998;6.250;2023-04-06T08:08:18;7.90;99.90
16666;DHT22;8446;50.998;6.250;2023-04-06T08:10:45;8.00;99.90
16666;DHT22;8446;50.998;6.250;2023-04-06T08:13:12;8.10;99.90
16666;DHT22;8446;50.998;6.250;2023-04-06T08:15:40;8.20;99.90
16666;DHT22;8446;50.998;6.250;2023-04-06T08:18:07;8.30;99.90
16666;DHT22;8446;50.998;6.250;2023-04-06T08:20:34;8.40;99.90
16666;DHT22;8446;50.998;6.250;2023-04-06T08:23:01;8.50;99.90
16666;DHT22;8446;50.998;6.250;2023-04-06T08:25:29;8.70;99.90
16666;DHT22;8446;50.998;6.250;2023-04-06T08:27:56;8.80;99.90
16666;DHT22;8446;50.998;6.250;2023-04-06T08:30:23;8.90;99.90
16666;DHT22;8446;50.998;6.250;2023-04-06T08:32:51;9.00;99.90
16666;DHT22;8446;50.998;6.250;2023-04-06T08:35:17;9.20;99.90
16666;DHT22;8446;50.998;6.250;2023-04-06T08:37:45;9.30;99.90
16666;DHT22;8446;50.998;6.250;2023-04-06T08:40:12;9.40;99.90
16666;DHT22;8446;50.998;6.250;2023-04-06T08:42:40;9.50;99.90
16666;DHT22;8446;50.998;6.250;2023-04-06T08:45:10;9.60;99.90
16666;DHT22;8446;50.998;6.250;2023-04-06T08:47:38;9.70;99.90
16666;DHT22;8446;50.998;6.250;2023-04-06T08:50:07;9.80;99.90
16666;DHT22;8446;50.998;6.250;2023-04-06T08:52:37;10.00;99.90
16666;DHT22;8446;50.998;6.250;2023-04-06T08:55:05;10.20;99.90
16666;DHT22;8446;50.998;6.250;2023-04-06T08:57:33;10.30;99.90
16666;DHT22;8446;50.998;6.250;2023-04-06T09:00:03;10.40;99.90
16666;DHT22;8446;50.998;6.250;2023-04-06T09:02:30;10.50;99.90
16666;DHT22;8446;50.998;6.250;2023-04-06T09:04:57;10.60;99.90
16666;DHT22;8446;50.998;6.250;2023-04-06T09:07:27;10.70;99.90
16666;DHT22;8446;50.998;6.250;2023-04-06T09:09:54;10.80;99.90
16666;DHT22;8446;50.998;6.250;2023-04-06T09:12:25;10.90;99.90
16666;DHT22;8446;50.998;6.250;2023-04-06T09:14:53;11.00;99.90
16666;DHT22;8446;50.998;6.250;2023-04-06T09:17:21;11.00;99.90
16666;DHT22;8446;50.998;6.250;2023-04-06T09:19:48;11.20;99.90
16666;DHT22;8446;50.998;6.250;2023-04-06T09:22:16;11.20;99.90
16666;DHT22;8446;50.998;6.250;2023-04-06T09:24:46;11.40;99.90
16666;DHT22;8446;50.998;6.250;2023-04-06T09:27:14;11.40;99.90
16666;DHT22;8446;50.998;6.250;2023-04-06T09:29:41;11.50;99.90
16666;DHT22;8446;50.998;6.250;2023-04-06T09:32:09;11.50;99.90
16666;DHT22;8446;50.998;6.250;2023-04-06T09:34:37;11.60;99.90
16666;DHT22;8446;50.998;6.250;2023-04-06T09:37:12;11.60;99.90
16666;DHT22;8446;50.998;6.250;2023-04-06T09:39:39;12.00;99.90
16666;DHT22;8446;50.998;6.250;2023-04-06T09:42:08;12.00;99.90
16666;DHT22;8446;50.998;6.250;2023-04-06T09:44:35;12.20;99.90
16666;DHT22;8446;50.998;6.250;2023-04-06T09:47:04;12.20;97.20
16666;DHT22;8446;50.998;6.250;2023-04-06T09:49:33;12.10;97.50
16666;DHT22;8446;50.998;6.250;2023-04-06T09:52:02;12.20;97.10
16666;DHT22;8446;50.998;6.250;2023-04-06T09:54:30;12.20;96.30
16666;DHT22;8446;50.998;6.250;2023-04-06T09:57:03;12.40;97.20
16666;DHT22;8446;50.998;6.250;2023-04-06T09:59:41;12.30;95.40
16666;DHT22;8446;50.998;6.250;2023-04-06T10:02:15;12.40;95.70
16666;DHT22;8446;50.998;6.250;2023-04-06T10:04:50;12.40;96.20
16666;DHT22;8446;50.998;6.250;2023-04-06T10:07:20;12.30;96.10
16666;DHT22;8446;50.998;6.250;2023-04-06T10:09:48;12.30;96.70
16666;DHT22;8446;50.998;6.250;2023-04-06T10:12:16;12.20;95.50
16666;DHT22;8446;50.998;6.250;2023-04-06T10:14:45;12.10;95.60
16666;DHT22;8446;50.998;6.250;2023-04-06T10:17:11;12.10;95.60
16666;DHT22;8446;50.998;6.250;2023-04-06T10:19:41;12.00;97.20
16666;DHT22;8446;50.998;6.250;2023-04-06T10:22:10;11.90;95.00
16666;DHT22;8446;50.998;6.250;2023-04-06T10:24:39;11.90;94.90
16666;DHT22;8446;50.998;6.250;2023-04-06T10:27:06;12.00;94.20
16666;DHT22;8446;50.998;6.250;2023-04-06T10:29:46;12.10;94.30
16666;DHT22;8446;50.998;6.250;2023-04-06T10:32:14;12.20;95.10
16666;DHT22;8446;50.998;6.250;2023-04-06T10:34:41;12.50;96.40
16666;DHT22;8446;50.998;6.250;2023-04-06T10:37:14;12.70;93.80
16666;DHT22;8446;50.998;6.250;2023-04-06T10:39:52;12.90;94.00
16666;DHT22;8446;50.998;6.250;2023-04-06T10:42:24;13.10;92.50
16666;DHT22;8446;50.998;6.250;2023-04-06T10:44:52;13.10;92.60
16666;DHT22;8446;50.998;6.250;2023-04-06T10:47:18;13.00;92.90
16666;DHT22;8446;50.998;6.250;2023-04-06T10:49:45;13.30;95.10
16666;DHT22;8446;50.998;6.250;2023-04-06T10:52:12;13.70;93.10
16666;DHT22;8446;50.998;6.250;2023-04-06T10:54:41;13.90;92.00
16666;DHT22;8446;50.998;6.250;2023-04-06T10:57:09;14.10;92.70
16666;DHT22;8446;50.998;6.250;2023-04-06T10:59:36;14.00;92.80
16666;DHT22;8446;50.998;6.250;2023-04-06T11:02:05;13.90;92.80
16666;DHT22;8446;50.998;6.250;2023-04-06T11:04:31;13.50;93.90
16666;DHT22;8446;50.998;6.250;2023-04-06T11:06:58;13.30;93.60
16666;DHT22;8446;50.998;6.250;2023-04-06T11:09:25;13.20;95.00
16666;DHT22;8446;50.998;6.250;2023-04-06T11:11:52;12.90;93.90
16666;DHT22;8446;50.998;6.250;2023-04-06T11:14:21;12.80;94.60
16666;DHT22;8446;50.998;6.250;2023-04-06T11:16:48;12.80;96.30
16666;DHT22;8446;50.998;6.250;2023-04-06T11:19:17;12.70;94.90
16666;DHT22;8446;50.998;6.250;2023-04-06T11:21:44;12.60;96.00
16666;DHT22;8446;50.998;6.250;2023-04-06T11:24:14;12.50;95.20
16666;DHT22;8446;50.998;6.250;2023-04-06T11:26:42;12.10;97.30
16666;DHT22;8446;50.998;6.250;2023-04-06T11:29:11;12.10;96.70
16666;DHT22;8446;50.998;6.250;2023-04-06T11:31:41;12.30;95.50
16666;DHT22;8446;50.998;6.250;2023-04-06T11:34:10;12.20;94.70
16666;DHT22;8446;50.998;6.250;2023-04-06T11:36:41;12.50;94.90
16666;DHT22;8446;50.998;6.250;2023-04-06T11:39:08;12.50;95.50
16666;DHT22;8446;50.998;6.250;2023-04-06T11:41:35;12.60;94.40
16666;DHT22;8446;50.998;6.250;2023-04-06T11:44:02;12.70;95.50
16666;DHT22;8446;50.998;6.250;2023-04-06T11:46:30;12.70;93.20
16666;DHT22;8446;50.998;6.250;2023-04-06T11:48:58;12.40;94.20
16666;DHT22;8446;50.998;6.250;2023-04-06T11:51:25;12.30;94.30
16666;DHT22;8446;50.998;6.250;2023-04-06T11:53:54;12.30;95.00
16666;DHT22;8446;50.998;6.250;2023-04-06T11:56:25;12.40;95.60
16666;DHT22;8446;50.998;6.250;2023-04-06T11:58:53;12.40;95.80
16666;DHT22;8446;50.998;6.250;2023-04-06T12:01:20;12.10;95.60
16666;DHT22;8446;50.998;6.250;2023-04-06T12:03:47;12.00;98.50
16666;DHT22;8446;50.998;6.250;2023-04-06T12:06:14;11.70;99.70
16666;DHT22;8446;50.998;6.250;2023-04-06T12:08:41;11.60;99.90
16666;DHT22;8446;50.998;6.250;2023-04-06T12:11:09;11.30;98.90
16666;DHT22;8446;50.998;6.250;2023-04-06T12:13:36;11.10;99.90
16666;DHT22;8446;50.998;6.250;2023-04-06T12:16:03;11.10;99.90
16666;DHT22;8446;50.998;6.250;2023-04-06T12:18:30;11.00;99.90
16666;DHT22;8446;50.998;6.250;2023-04-06T12:20:57;11.10;99.90
16666;DHT22;8446;50.998;6.250;2023-04-06T12:23:24;11.00;99.90
16666;DHT22;8446;50.998;6.250;2023-04-06T12:25:50;10.90;99.90
16666;DHT22;8446;50.998;6.250;2023-04-06T12:28:19;10.90;99.90
16666;DHT22;8446;50.998;6.250;2023-04-06T12:30:48;10.80;99.90
16666;DHT22;8446;50.998;6.250;2023-04-06T12:33:15;10.90;99.90
16666;DHT22;8446;50.998;6.250;2023-04-06T12:35:42;10.90;99.90
16666;DHT22;8446;50.998;6.250;2023-04-06T12:38:09;10.80;99.90
16666;DHT22;8446;50.998;6.250;2023-04-06T12:40:37;10.80;99.90
16666;DHT22;8446;50.998;6.250;2023-04-06T12:43:04;10.70;99.90
16666;DHT22;8446;50.998;6.250;2023-04-06T12:45:32;10.70;99.90
16666;DHT22;8446;50.998;6.250;2023-04-06T12:47:59;10.70;99.90
16666;DHT22;8446;50.998;6.250;2023-04-06T12:50:26;10.60;99.90
16666;DHT22;8446;50.998;6.250;2023-04-06T12:52:53;10.40;99.90
16666;DHT22;8446;50.998;6.250;2023-04-06T12:55:20;10.40;99.90
16666;DHT22;8446;50.998;6.250;2023-04-06T12:57:47;10.40;99.90
16666;DHT22;8446;50.998;6.250;2023-04-06T13:00:14;10.40;99.90
16666;DHT22;8446;50.998;6.250;2023-04-06T13:02:42;10.30;99.90
16666;DHT22;8446;50.998;6.250;2023-04-06T13:05:12;10.20;99.90
16666;DHT22;8446;50.998;6.250;2023-04-06T13:07:40;10.30;99.90
16666;DHT22;8446;50.998;6.250;2023-04-06T13:10:08;10.30;99.90
16666;DHT22;8446;50.998;6.250;2023-04-06T13:12:34;10.30;99.90
16666;DHT22;8446;50.998;6.250;2023-04-06T13:15:02;10.40;99.90
16666;DHT22;8446;50.998;6.250;2023-04-06T13:17:29;10.30;99.90
16666;DHT22;8446;50.998;6.250;2023-04-06T13:19:58;10.30;99.90
16666;DHT22;8446;50.998;6.250;2023-04-06T13:22:24;10.30;99.90
16666;DHT22;8446;50.998;6.250;2023-04-06T13:24:51;10.20;99.90
16666;DHT22;8446;50.998;6.250;2023-04-06T13:27:18;10.10;99.90
16666;DHT22;8446;50.998;6.250;2023-04-06T13:29:45;9.90;99.90
16666;DHT22;8446;50.998;6.250;2023-04-06T13:32:12;9.90;99.90
16666;DHT22;8446;50.998;6.250;2023-04-06T13:34:39;9.80;99.90
16666;DHT22;8446;50.998;6.250;2023-04-06T13:37:11;9.70;99.90
16666;DHT22;8446;50.998;6.250;2023-04-06T13:39:38;9.70;99.90
16666;DHT22;8446;50.998;6.250;2023-04-06T13:42:05;9.60;99.90
16666;DHT22;8446;50.998;6.250;2023-04-06T13:44:32;9.60;99.90
16666;DHT22;8446;50.998;6.250;2023-04-06T13:46:59;9.50;99.90
16666;DHT22;8446;50.998;6.250;2023-04-06T13:49:25;9.50;99.90
16666;DHT22;8446;50.998;6.250;2023-04-06T13:51:53;9.60;99.90
16666;DHT22;8446;50.998;6.250;2023-04-06T13:54:21;9.60;99.90
16666;DHT22;8446;50.998;6.250;2023-04-06T13:56:48;9.60;99.90
16666;DHT22;8446;50.998;6.250;2023-04-06T13:59:14;9.60;99.90
16666;DHT22;8446;50.998;6.250;2023-04-06T14:01:41;9.70;99.90
16666;DHT22;8446;50.998;6.250;2023-04-06T14:04:08;9.60;99.90
16666;DHT22;8446;50.998;6.250;2023-04-06T14:06:36;9.50;99.90
16666;DHT22;8446;50.998;6.250;2023-04-06T14:09:03;9.60;99.90
16666;DHT22;8446;50.998;6.250;2023-04-06T14:11:31;9.50;99.90
16666;DHT22;8446;50.998;6.250;2023-04-06T14:13:59;9.60;99.90
16666;DHT22;8446;50.998;6.250;2023-04-06T14:16:26;9.60;99.90
16666;DHT22;8446;50.998;6.250;2023-04-06T14:18:52;9.50;99.90
16666;DHT22;8446;50.998;6.250;2023-04-06T14:21:20;9.50;99.90
16666;DHT22;8446;50.998;6.250;2023-04-06T14:23:47;9.50;99.90
16666;DHT22;8446;50.998;6.250;2023-04-06T14:26:13;9.50;99.90
16666;DHT22;8446;50.998;6.250;2023-04-06T14:28:42;9.60;99.90
16666;DHT22;8446;50.998;6.250;2023-04-06T14:31:13;9.60;99.90
16666;DHT22;8446;50.998;6.250;2023-04-06T14:33:41;9.60;99.90
16666;DHT22;8446;50.998;6.250;2023-04-06T14:36:08;9.60;99.90
16666;DHT22;8446;50.998;6.250;2023-04-06T14:38:35;9.60;99.90
16666;DHT22;8446;50.998;6.250;2023-04-06T14:41:02;9.60;99.90
16666;DHT22;8446;50.998;6.250;2023-04-06T14:43:29;9.50;99.90
16666;DHT22;8446;50.998;6.250;2023-04-06T14:46:01;9.50;99.90
16666;DHT22;8446;50.998;6.250;2023-04-06T14:48:28;9.50;99.90
16666;DHT22;8446;50.998;6.250;2023-04-06T14:50:55;9.40;99.90
16666;DHT22;8446;50.998;6.250;2023-04-06T14:53:22;9.30;99.90
16666;DHT22;8446;50.998;6.250;2023-04-06T14:55:49;9.30;99.90
16666;DHT22;8446;50.998;6.250;2023-04-06T14:58:17;9.20;99.90
16666;DHT22;8446;50.998;6.250;2023-04-06T15:00:43;9.20;99.90
16666;DHT22;8446;50.998;6.250;2023-04-06T15:03:12;9.20;99.90
16666;DHT22;8446;50.998;6.250;2023-04-06T15:05:39;9.20;99.90
16666;DHT22;8446;50.998;6.250;2023-04-06T15:08:06;9.20;99.90
16666;DHT22;8446;50.998;6.250;2023-04-06T15:10:34;9.20;99.90
16666;DHT22;8446;50.998;6.250;2023-04-06T15:13:01;9.20;99.90
16666;DHT22;8446;50.998;6.250;2023-04-06T15:15:29;9.20;99.90
16666;DHT22;8446;50.998;6.250;2023-04-06T15:17:55;9.10;99.90
16666;DHT22;8446;50.998;6.250;2023-04-06T15:20:24;9.20;99.90
16666;DHT22;8446;50.998;6.250;2023-04-06T15:22:51;9.20;99.90
16666;DHT22;8446;50.998;6.250;2023-04-06T15:25:18;9.10;99.90
16666;DHT22;8446;50.998;6.250;2023-04-06T15:27:45;9.20;99.90
16666;DHT22;8446;50.998;6.250;2023-04-06T15:30:12;9.10;99.90
16666;DHT22;8446;50.998;6.250;2023-04-06T15:32:39;9.20;99.90
16666;DHT22;8446;50.998;6.250;2023-04-06T15:35:09;9.10;99.90
16666;DHT22;8446;50.998;6.250;2023-04-06T15:37:38;9.10;99.90
16666;DHT22;8446;50.998;6.250;2023-04-06T15:40:06;9.00;99.90
16666;DHT22;8446;50.998;6.250;2023-04-06T15:42:33;9.00;99.90
16666;DHT22;8446;50.998;6.250;2023-04-06T15:44:59;9.00;99.90
16666;DHT22;8446;50.998;6.250;2023-04-06T15:47:26;9.00;99.90
16666;DHT22;8446;50.998;6.250;2023-04-06T15:49:53;9.00;99.90
16666;DHT22;8446;50.998;6.250;2023-04-06T15:52:21;9.00;99.90
16666;DHT22;8446;50.998;6.250;2023-04-06T15:54:49;9.00;99.90
16666;DHT22;8446;50.998;6.250;2023-04-06T15:57:16;9.00;99.90